VIV4177 MMLO-MMMY
Flight info
| Callsign | VIV4177 |
|---|---|
| Flight time | 1h 2m |
| Altitude | 37000 |
| Route | KARIR UJ31 SLW SLW1B |
| Aircraft | A20N/M-SDE2E3FGHIRWXY/LB1 |
Departure
| Time | 2026-04-21 17:39 |
|---|---|
| Airport | Guanajuato International Airport (MMLO) |
Arrival
| Time | 2026-04-21 18:41 |
|---|---|
| Airport | Monterrey International Airport (MMMY) |
| Time | Latitude | Longitude | Altitude | Speed | Heading |
|---|---|---|---|---|---|
| 2026-04-21 17:16 | 20.98630 | -101.47811 | 5971 ft | 0 kts | 225° |
| 2026-04-21 17:31 | 20.98636 | -101.47804 | 5972 ft | 4 kts | 222° |
| 2026-04-21 17:31 | 20.98658 | -101.47787 | 5970 ft | 4 kts | 206° |
| 2026-04-21 17:31 | 20.98682 | -101.47780 | 5973 ft | 4 kts | 162° |
| 2026-04-21 17:31 | 20.98694 | -101.47787 | 5970 ft | 1 kts | 135° |
| 2026-04-21 17:32 | 20.98695 | -101.47788 | 5970 ft | 0 kts | 135° |
| 2026-04-21 17:34 | 20.98686 | -101.47777 | 5970 ft | 4 kts | 135° |
| 2026-04-21 17:35 | 20.98660 | -101.47750 | 5971 ft | 7 kts | 135° |
| 2026-04-21 17:35 | 20.98657 | -101.47703 | 5973 ft | 8 kts | 57° |
| 2026-04-21 17:35 | 20.98701 | -101.47655 | 5971 ft | 10 kts | 46° |
| 2026-04-21 17:35 | 20.98759 | -101.47598 | 5971 ft | 12 kts | 40° |
| 2026-04-21 17:36 | 20.98801 | -101.47524 | 5971 ft | 9 kts | 109° |
| 2026-04-21 17:36 | 20.98753 | -101.47467 | 5975 ft | 12 kts | 134° |
| 2026-04-21 17:36 | 20.98690 | -101.47396 | 5974 ft | 15 kts | 133° |
| 2026-04-21 17:36 | 20.98612 | -101.47309 | 5971 ft | 18 kts | 133° |
| 2026-04-21 17:37 | 20.98523 | -101.47209 | 5973 ft | 20 kts | 134° |
| 2026-04-21 17:37 | 20.98421 | -101.47100 | 5969 ft | 23 kts | 135° |
| 2026-04-21 17:37 | 20.98351 | -101.47026 | 5972 ft | 15 kts | 135° |
| 2026-04-21 17:37 | 20.98285 | -101.46975 | 5973 ft | 8 kts | 170° |
| 2026-04-21 17:38 | 20.98217 | -101.46950 | 5971 ft | 11 kts | 121° |
| 2026-04-21 17:38 | 20.98243 | -101.46918 | 5970 ft | 6 kts | 355° |
| 2026-04-21 17:38 | 20.98262 | -101.46934 | 5971 ft | 14 kts | 315° |
| 2026-04-21 17:38 | 20.98559 | -101.47256 | 5974 ft | 104 kts | 314° |
| 2026-04-21 17:39 | 20.99229 | -101.47987 | 6059 ft | 161 kts | 314° |
| 2026-04-21 17:39 | 21.00052 | -101.48886 | 6844 ft | 179 kts | 313° |
| 2026-04-21 17:39 | 21.00968 | -101.49890 | 7730 ft | 195 kts | 313° |
| 2026-04-21 17:39 | 21.01897 | -101.50941 | 8319 ft | 198 kts | 312° |
| 2026-04-21 17:40 | 21.02890 | -101.52050 | 8776 ft | 218 kts | 314° |
| 2026-04-21 17:40 | 21.04002 | -101.53271 | 9169 ft | 237 kts | 314° |
| 2026-04-21 17:40 | 21.05203 | -101.54590 | 9576 ft | 259 kts | 314° |
| 2026-04-21 17:40 | 21.06483 | -101.55999 | 10246 ft | 266 kts | 314° |
| 2026-04-21 17:41 | 21.07767 | -101.57413 | 11028 ft | 268 kts | 314° |
| 2026-04-21 17:41 | 21.09085 | -101.58864 | 11657 ft | 274 kts | 315° |
| 2026-04-21 17:41 | 21.10422 | -101.60342 | 12201 ft | 278 kts | 315° |
| 2026-04-21 17:41 | 21.11786 | -101.61852 | 12875 ft | 284 kts | 315° |
| 2026-04-21 17:42 | 21.13169 | -101.63385 | 13568 ft | 289 kts | 315° |
| 2026-04-21 17:42 | 21.14561 | -101.64925 | 14258 ft | 293 kts | 315° |
| 2026-04-21 17:42 | 21.15982 | -101.66491 | 14954 ft | 293 kts | 316° |
| 2026-04-21 17:42 | 21.17664 | -101.67700 | 15621 ft | 294 kts | 340° |
| 2026-04-21 17:43 | 21.19672 | -101.68047 | 16267 ft | 297 kts | 4° |
| 2026-04-21 17:43 | 21.21671 | -101.67450 | 16864 ft | 303 kts | 28° |
| 2026-04-21 17:43 | 21.23292 | -101.65987 | 17393 ft | 311 kts | 52° |
| 2026-04-21 17:43 | 21.24412 | -101.63988 | 17979 ft | 315 kts | 61° |
| 2026-04-21 17:44 | 21.25112 | -101.62579 | 18395 ft | 317 kts | 62° |
| 2026-04-21 17:44 | 21.26147 | -101.60474 | 18662 ft | 333 kts | 61° |
| 2026-04-21 17:44 | 21.27274 | -101.58223 | 18839 ft | 353 kts | 60° |
| 2026-04-21 17:44 | 21.28482 | -101.55848 | 19005 ft | 372 kts | 60° |
| 2026-04-21 17:45 | 21.29762 | -101.53359 | 19170 ft | 390 kts | 60° |
| 2026-04-21 17:45 | 21.31101 | -101.50766 | 19446 ft | 403 kts | 60° |
| 2026-04-21 17:45 | 21.32462 | -101.48131 | 20059 ft | 404 kts | 60° |
| 2026-04-21 17:45 | 21.33831 | -101.45478 | 20664 ft | 408 kts | 60° |
| 2026-04-21 17:46 | 21.35209 | -101.42807 | 21231 ft | 411 kts | 60° |
| 2026-04-21 17:46 | 21.36598 | -101.40111 | 21800 ft | 415 kts | 59° |
| 2026-04-21 17:46 | 21.38003 | -101.37385 | 22369 ft | 419 kts | 59° |
| 2026-04-21 17:46 | 21.39420 | -101.34634 | 22943 ft | 422 kts | 59° |
| 2026-04-21 17:47 | 21.40847 | -101.31862 | 23514 ft | 426 kts | 59° |
| 2026-04-21 17:47 | 21.42286 | -101.29062 | 23944 ft | 432 kts | 59° |
| 2026-04-21 17:47 | 21.43744 | -101.26225 | 24385 ft | 435 kts | 59° |
| 2026-04-21 17:47 | 21.45211 | -101.23374 | 24854 ft | 438 kts | 59° |
| 2026-04-21 17:48 | 21.46687 | -101.20502 | 25296 ft | 442 kts | 59° |
| 2026-04-21 17:48 | 21.48180 | -101.17596 | 25725 ft | 446 kts | 59° |
| 2026-04-21 17:48 | 21.49683 | -101.14667 | 26158 ft | 449 kts | 59° |
| 2026-04-21 17:48 | 21.51198 | -101.11713 | 26591 ft | 453 kts | 59° |
| 2026-04-21 17:49 | 21.52716 | -101.08782 | 26993 ft | 456 kts | 56° |
| 2026-04-21 17:49 | 21.54625 | -101.06070 | 27386 ft | 455 kts | 43° |
| 2026-04-21 17:49 | 21.57021 | -101.03870 | 27783 ft | 454 kts | 31° |
| 2026-04-21 17:49 | 21.59796 | -101.02273 | 28178 ft | 451 kts | 18° |
| 2026-04-21 17:50 | 21.62803 | -101.01352 | 28559 ft | 449 kts | 6° |
| 2026-04-21 17:50 | 21.65904 | -101.00953 | 28958 ft | 450 kts | 1° |
| 2026-04-21 17:50 | 21.69036 | -101.00678 | 29350 ft | 453 kts | 1° |
| 2026-04-21 17:50 | 21.72184 | -101.00371 | 29740 ft | 456 kts | 2° |
| 2026-04-21 17:51 | 21.75354 | -101.00004 | 30127 ft | 459 kts | 3° |
| 2026-04-21 17:51 | 21.78537 | -100.99593 | 30462 ft | 463 kts | 3° |
| 2026-04-21 17:51 | 21.81741 | -100.99157 | 30781 ft | 466 kts | 3° |
| 2026-04-21 17:51 | 21.84977 | -100.98709 | 31101 ft | 469 kts | 3° |
| 2026-04-21 17:52 | 21.88220 | -100.98257 | 31453 ft | 471 kts | 3° |
| 2026-04-21 17:52 | 21.91476 | -100.97803 | 31854 ft | 472 kts | 3° |
| 2026-04-21 17:52 | 21.94732 | -100.97347 | 32301 ft | 472 kts | 3° |
| 2026-04-21 17:52 | 21.97992 | -100.96890 | 32727 ft | 472 kts | 3° |
| 2026-04-21 17:53 | 22.01248 | -100.96438 | 33167 ft | 472 kts | 3° |
| 2026-04-21 17:53 | 22.04503 | -100.95986 | 33607 ft | 472 kts | 4° |
| 2026-04-21 17:53 | 22.07763 | -100.95534 | 34022 ft | 472 kts | 3° |
| 2026-04-21 17:53 | 22.11026 | -100.95079 | 34426 ft | 472 kts | 2° |
| 2026-04-21 17:54 | 22.14273 | -100.94627 | 34802 ft | 472 kts | 2° |
| 2026-04-21 17:54 | 22.17530 | -100.94173 | 35169 ft | 471 kts | 2° |
| 2026-04-21 17:54 | 22.20782 | -100.93719 | 35506 ft | 470 kts | 2° |
| 2026-04-21 17:54 | 22.24033 | -100.93266 | 35834 ft | 470 kts | 2° |
| 2026-04-21 17:55 | 22.27239 | -100.93027 | 36147 ft | 464 kts | 355° |
| 2026-04-21 17:55 | 22.30478 | -100.93042 | 36453 ft | 463 kts | 355° |
| 2026-04-21 17:55 | 22.33698 | -100.93046 | 36761 ft | 463 kts | 355° |
| 2026-04-21 17:55 | 22.36917 | -100.93042 | 37039 ft | 462 kts | 355° |
| 2026-04-21 17:56 | 22.40152 | -100.93038 | 37275 ft | 462 kts | 355° |
| 2026-04-21 17:56 | 22.43371 | -100.93034 | 37298 ft | 461 kts | 355° |
| 2026-04-21 17:56 | 22.49719 | -100.93030 | 37237 ft | 459 kts | 355° |
| 2026-04-21 17:57 | 22.52925 | -100.93030 | 37128 ft | 460 kts | 355° |
| 2026-04-21 17:57 | 22.56128 | -100.93029 | 37126 ft | 460 kts | 355° |
| 2026-04-21 17:57 | 22.62534 | -100.93027 | 37130 ft | 459 kts | 355° |
| 2026-04-21 17:58 | 22.68930 | -100.93024 | 37127 ft | 459 kts | 355° |
| 2026-04-21 17:58 | 22.75324 | -100.93020 | 37138 ft | 460 kts | 354° |
| 2026-04-21 17:59 | 22.81674 | -100.93016 | 37136 ft | 459 kts | 354° |
| 2026-04-21 17:59 | 22.88067 | -100.93013 | 37136 ft | 459 kts | 354° |
| 2026-04-21 18:00 | 22.94452 | -100.93009 | 37136 ft | 459 kts | 354° |
| 2026-04-21 18:00 | 23.00830 | -100.93005 | 37134 ft | 458 kts | 354° |
| 2026-04-21 18:01 | 23.07218 | -100.93001 | 37130 ft | 458 kts | 354° |
| 2026-04-21 18:01 | 23.13601 | -100.93001 | 37127 ft | 457 kts | 354° |
| 2026-04-21 18:02 | 23.19948 | -100.93000 | 37127 ft | 457 kts | 354° |
| 2026-04-21 18:02 | 23.26313 | -100.92998 | 37127 ft | 457 kts | 354° |
| 2026-04-21 18:03 | 23.32638 | -100.92997 | 37126 ft | 457 kts | 354° |
| 2026-04-21 18:03 | 23.39006 | -100.92995 | 37126 ft | 455 kts | 354° |
| 2026-04-21 18:04 | 23.45291 | -100.92994 | 37110 ft | 452 kts | 354° |
| 2026-04-21 18:04 | 23.51598 | -100.92997 | 37123 ft | 456 kts | 354° |
| 2026-04-21 18:05 | 23.58035 | -100.93005 | 37123 ft | 469 kts | 354° |
| 2026-04-21 18:05 | 23.64612 | -100.93009 | 37129 ft | 473 kts | 354° |
| 2026-04-21 18:06 | 23.71185 | -100.93007 | 37127 ft | 470 kts | 354° |
| 2026-04-21 18:06 | 23.77735 | -100.93009 | 37124 ft | 471 kts | 354° |
| 2026-04-21 18:07 | 23.84293 | -100.93011 | 37129 ft | 471 kts | 354° |
| 2026-04-21 18:07 | 23.90802 | -100.93009 | 37126 ft | 471 kts | 354° |
| 2026-04-21 18:08 | 23.97364 | -100.93008 | 37124 ft | 471 kts | 354° |
| 2026-04-21 18:08 | 24.03930 | -100.93006 | 37125 ft | 473 kts | 353° |
| 2026-04-21 18:09 | 24.10504 | -100.93005 | 37120 ft | 472 kts | 353° |
| 2026-04-21 18:09 | 24.17081 | -100.93004 | 37123 ft | 472 kts | 353° |
| 2026-04-21 18:10 | 24.23653 | -100.93003 | 37127 ft | 472 kts | 353° |
| 2026-04-21 18:10 | 24.30231 | -100.93001 | 37126 ft | 472 kts | 353° |
| 2026-04-21 18:11 | 24.36799 | -100.93000 | 37125 ft | 472 kts | 353° |
| 2026-04-21 18:11 | 24.43372 | -100.92998 | 37127 ft | 472 kts | 353° |
| 2026-04-21 18:12 | 24.49963 | -100.92998 | 37129 ft | 472 kts | 353° |
| 2026-04-21 18:12 | 24.56486 | -100.92995 | 37126 ft | 472 kts | 353° |
| 2026-04-21 18:13 | 24.63099 | -100.92994 | 37133 ft | 470 kts | 353° |
| 2026-04-21 18:13 | 24.69570 | -100.92987 | 36805 ft | 456 kts | 353° |
| 2026-04-21 18:14 | 24.75782 | -100.92984 | 36307 ft | 450 kts | 353° |
| 2026-04-21 18:14 | 24.78930 | -100.92990 | 35780 ft | 455 kts | 353° |
| 2026-04-21 18:14 | 24.82118 | -100.92995 | 35062 ft | 460 kts | 353° |
| 2026-04-21 18:15 | 24.85338 | -100.93000 | 34109 ft | 467 kts | 353° |
| 2026-04-21 18:15 | 24.88616 | -100.93003 | 33139 ft | 471 kts | 353° |
| 2026-04-21 18:15 | 24.91887 | -100.93003 | 32292 ft | 471 kts | 354° |
| 2026-04-21 18:15 | 24.95175 | -100.93001 | 31442 ft | 472 kts | 353° |
| 2026-04-21 18:16 | 24.98467 | -100.93000 | 30614 ft | 472 kts | 353° |
| 2026-04-21 18:16 | 25.01735 | -100.92997 | 29992 ft | 466 kts | 353° |
| 2026-04-21 18:16 | 25.04958 | -100.92993 | 29359 ft | 459 kts | 353° |
| 2026-04-21 18:16 | 25.08133 | -100.92990 | 28744 ft | 453 kts | 354° |
| 2026-04-21 18:17 | 25.11263 | -100.92989 | 28130 ft | 446 kts | 354° |
| 2026-04-21 18:17 | 25.14346 | -100.92989 | 27524 ft | 441 kts | 354° |
| 2026-04-21 18:17 | 25.17394 | -100.92988 | 26934 ft | 435 kts | 354° |
| 2026-04-21 18:17 | 25.20414 | -100.92989 | 26341 ft | 431 kts | 354° |
| 2026-04-21 18:18 | 25.23405 | -100.92991 | 25762 ft | 427 kts | 354° |
| 2026-04-21 18:18 | 25.26329 | -100.92988 | 25546 ft | 414 kts | 354° |
| 2026-04-21 18:18 | 25.29150 | -100.92985 | 25109 ft | 408 kts | 354° |
| 2026-04-21 18:18 | 25.32012 | -100.92987 | 24612 ft | 405 kts | 354° |
| 2026-04-21 18:19 | 25.34788 | -100.92989 | 24038 ft | 403 kts | 354° |
| 2026-04-21 18:19 | 25.37575 | -100.92985 | 23479 ft | 400 kts | 354° |
| 2026-04-21 18:19 | 25.40349 | -100.92986 | 22896 ft | 396 kts | 354° |
| 2026-04-21 18:19 | 25.43091 | -100.92988 | 22348 ft | 393 kts | 354° |
| 2026-04-21 18:20 | 25.45848 | -100.92990 | 21777 ft | 389 kts | 355° |
| 2026-04-21 18:20 | 25.48549 | -100.92675 | 21203 ft | 395 kts | 10° |
| 2026-04-21 18:20 | 25.51095 | -100.91511 | 20656 ft | 400 kts | 27° |
| 2026-04-21 18:20 | 25.53226 | -100.89592 | 20175 ft | 402 kts | 45° |
| 2026-04-21 18:21 | 25.54747 | -100.87010 | 20069 ft | 405 kts | 64° |
| 2026-04-21 18:21 | 25.55528 | -100.83965 | 20060 ft | 417 kts | 82° |
| 2026-04-21 18:21 | 25.55552 | -100.80769 | 19985 ft | 415 kts | 95° |
| 2026-04-21 18:21 | 25.55251 | -100.77565 | 19816 ft | 411 kts | 96° |
| 2026-04-21 18:22 | 25.55001 | -100.74471 | 19559 ft | 406 kts | 94° |
| 2026-04-21 18:22 | 25.54864 | -100.71376 | 19351 ft | 400 kts | 91° |
| 2026-04-21 18:22 | 25.54814 | -100.68278 | 19274 ft | 405 kts | 90° |
| 2026-04-21 18:22 | 25.54810 | -100.65152 | 19185 ft | 405 kts | 89° |
| 2026-04-21 18:23 | 25.54826 | -100.62037 | 19102 ft | 404 kts | 89° |
| 2026-04-21 18:23 | 25.54849 | -100.58929 | 19013 ft | 403 kts | 89° |
| 2026-04-21 18:23 | 25.54871 | -100.55828 | 18939 ft | 402 kts | 89° |
| 2026-04-21 18:23 | 25.54891 | -100.52741 | 18858 ft | 401 kts | 89° |
| 2026-04-21 18:24 | 25.54910 | -100.49659 | 18794 ft | 400 kts | 90° |
| 2026-04-21 18:24 | 25.54927 | -100.46584 | 18701 ft | 400 kts | 90° |
| 2026-04-21 18:24 | 25.54941 | -100.43510 | 18598 ft | 398 kts | 90° |
| 2026-04-21 18:24 | 25.54955 | -100.40446 | 18510 ft | 399 kts | 89° |
| 2026-04-21 18:25 | 25.54970 | -100.37390 | 18394 ft | 396 kts | 89° |
| 2026-04-21 18:25 | 25.54981 | -100.34345 | 18303 ft | 395 kts | 90° |
| 2026-04-21 18:25 | 25.54994 | -100.31303 | 18188 ft | 395 kts | 89° |
| 2026-04-21 18:25 | 25.55013 | -100.28250 | 18000 ft | 396 kts | 89° |
| 2026-04-21 18:26 | 25.55409 | -100.25261 | 17827 ft | 391 kts | 71° |
| 2026-04-21 18:26 | 25.56589 | -100.22587 | 17578 ft | 387 kts | 52° |
| 2026-04-21 18:26 | 25.58446 | -100.20479 | 17307 ft | 380 kts | 33° |
| 2026-04-21 18:26 | 25.60729 | -100.19042 | 17026 ft | 375 kts | 22° |
| 2026-04-21 18:27 | 25.63090 | -100.17819 | 16748 ft | 375 kts | 22° |
| 2026-04-21 18:27 | 25.65417 | -100.16523 | 16470 ft | 374 kts | 25° |
| 2026-04-21 18:27 | 25.67680 | -100.15122 | 16193 ft | 372 kts | 27° |
| 2026-04-21 18:27 | 25.69899 | -100.13647 | 15914 ft | 371 kts | 28° |
| 2026-04-21 18:28 | 25.72088 | -100.12137 | 15637 ft | 369 kts | 29° |
| 2026-04-21 18:28 | 25.74253 | -100.10624 | 15352 ft | 367 kts | 29° |
| 2026-04-21 18:28 | 25.76414 | -100.09109 | 15072 ft | 366 kts | 30° |
| 2026-04-21 18:28 | 25.78554 | -100.07608 | 14874 ft | 363 kts | 30° |
| 2026-04-21 18:29 | 25.79969 | -100.06616 | 14828 ft | 363 kts | 30° |
| 2026-04-21 18:29 | 25.82802 | -100.04633 | 14813 ft | 364 kts | 30° |
| 2026-04-21 18:29 | 25.84250 | -100.03620 | 14817 ft | 364 kts | 30° |
| 2026-04-21 18:29 | 25.87067 | -100.01645 | 14754 ft | 355 kts | 30° |
| 2026-04-21 18:30 | 25.89195 | -100.00399 | 14634 ft | 337 kts | 14° |
| 2026-04-21 18:30 | 25.91434 | -100.00076 | 14515 ft | 316 kts | 351° |
| 2026-04-21 18:30 | 25.92866 | -100.00399 | 14310 ft | 307 kts | 336° |
| 2026-04-21 18:30 | 25.94629 | -100.01584 | 13870 ft | 299 kts | 313° |
| 2026-04-21 18:31 | 25.95821 | -100.03439 | 13371 ft | 295 kts | 297° |
| 2026-04-21 18:31 | 25.96827 | -100.05425 | 12936 ft | 294 kts | 298° |
| 2026-04-21 18:31 | 25.97860 | -100.07382 | 12507 ft | 294 kts | 299° |
| 2026-04-21 18:31 | 25.98937 | -100.09346 | 12061 ft | 293 kts | 300° |
| 2026-04-21 18:32 | 26.00016 | -100.11264 | 11641 ft | 292 kts | 301° |
| 2026-04-21 18:32 | 26.01086 | -100.13146 | 11231 ft | 291 kts | 301° |
| 2026-04-21 18:32 | 26.02173 | -100.15050 | 10790 ft | 291 kts | 301° |
| 2026-04-21 18:32 | 26.03253 | -100.16942 | 10445 ft | 287 kts | 301° |
| 2026-04-21 18:33 | 26.04150 | -100.18858 | 10335 ft | 273 kts | 284° |
| 2026-04-21 18:33 | 26.04231 | -100.20884 | 10236 ft | 258 kts | 257° |
| 2026-04-21 18:33 | 26.03510 | -100.22632 | 10150 ft | 244 kts | 232° |
| 2026-04-21 18:33 | 26.02259 | -100.23816 | 10018 ft | 232 kts | 211° |
| 2026-04-21 18:34 | 26.00900 | -100.24699 | 9974 ft | 217 kts | 212° |
| 2026-04-21 18:34 | 25.99650 | -100.25532 | 9723 ft | 205 kts | 213° |
| 2026-04-21 18:34 | 25.98445 | -100.26344 | 9342 ft | 201 kts | 213° |
| 2026-04-21 18:34 | 25.97257 | -100.27146 | 8950 ft | 197 kts | 214° |
| 2026-04-21 18:35 | 25.96082 | -100.27941 | 8390 ft | 199 kts | 214° |
| 2026-04-21 18:35 | 25.94900 | -100.28740 | 7902 ft | 198 kts | 214° |
| 2026-04-21 18:35 | 25.93723 | -100.29532 | 7452 ft | 196 kts | 214° |
| 2026-04-21 18:35 | 25.92559 | -100.30313 | 7004 ft | 195 kts | 214° |
| 2026-04-21 18:36 | 25.91396 | -100.31086 | 6585 ft | 194 kts | 211° |
| 2026-04-21 18:36 | 25.90079 | -100.31367 | 6126 ft | 197 kts | 174° |
| 2026-04-21 18:36 | 25.88900 | -100.30711 | 5967 ft | 187 kts | 136° |
| 2026-04-21 18:36 | 25.88202 | -100.29573 | 5620 ft | 173 kts | 120° |
| 2026-04-21 18:37 | 25.87588 | -100.28431 | 5039 ft | 171 kts | 120° |
| 2026-04-21 18:37 | 25.86977 | -100.27310 | 4482 ft | 168 kts | 120° |
| 2026-04-21 18:37 | 25.86398 | -100.26254 | 4046 ft | 159 kts | 121° |
| 2026-04-21 18:37 | 25.85826 | -100.25216 | 3638 ft | 153 kts | 121° |
| 2026-04-21 18:38 | 25.85265 | -100.24201 | 3523 ft | 150 kts | 121° |
| 2026-04-21 18:38 | 25.84737 | -100.23243 | 3253 ft | 144 kts | 121° |
| 2026-04-21 18:38 | 25.84216 | -100.22294 | 3134 ft | 144 kts | 120° |
| 2026-04-21 18:38 | 25.83695 | -100.21337 | 3030 ft | 143 kts | 120° |
| 2026-04-21 18:39 | 25.83183 | -100.20388 | 2787 ft | 142 kts | 120° |
| 2026-04-21 18:39 | 25.82692 | -100.19492 | 2574 ft | 133 kts | 122° |
| 2026-04-21 18:39 | 25.82178 | -100.18624 | 2347 ft | 134 kts | 125° |
| 2026-04-21 18:39 | 25.81619 | -100.17769 | 2187 ft | 138 kts | 123° |
| 2026-04-21 18:40 | 25.81174 | -100.16838 | 2095 ft | 136 kts | 120° |
| 2026-04-21 18:40 | 25.80637 | -100.15942 | 1989 ft | 143 kts | 124° |
| 2026-04-21 18:40 | 25.80259 | -100.15329 | 1895 ft | 149 kts | 128° |
| 2026-04-21 18:40 | 25.79433 | -100.14092 | 1761 ft | 147 kts | 118° |
| 2026-04-21 18:41 | 25.79035 | -100.13045 | 1587 ft | 148 kts | 109° |
| 2026-04-21 18:41 | 25.78603 | -100.12040 | 1379 ft | 141 kts | 120° |
| 2026-04-21 18:41 | 25.78105 | -100.11150 | 1281 ft | 119 kts | 122° |
| 2026-04-21 18:41 | 25.77914 | -100.10804 | 1280 ft | 19 kts | 121° |
| 2026-04-21 18:42 | 25.77867 | -100.10734 | 1279 ft | 1 kts | 158° |
| 2026-04-21 18:42 | 25.77848 | -100.10771 | 1280 ft | 10 kts | 265° |
| 2026-04-21 18:42 | 25.77854 | -100.10796 | 1280 ft | 12 kts | 290° |
| 2026-04-21 18:42 | 25.77857 | -100.10804 | 1280 ft | 13 kts | 290° |